sensor_id;sensor_type;location;lat;lon;timestamp;P1;durP1;ratioP1;P2;durP2;ratioP2
18146;SDS011;9199;48.832;9.182;2023-05-14T00:02:10;16.10;;;10.40;;
18146;SDS011;9199;48.832;9.182;2023-05-14T00:04:36;15.02;;;11.10;;
18146;SDS011;9199;48.832;9.182;2023-05-14T00:07:03;14.13;;;10.43;;
18146;SDS011;9199;48.832;9.182;2023-05-14T00:09:30;15.02;;;10.98;;
18146;SDS011;9199;48.832;9.182;2023-05-14T00:11:57;14.90;;;10.67;;
18146;SDS011;9199;48.832;9.182;2023-05-14T00:14:24;15.75;;;10.60;;
18146;SDS011;9199;48.832;9.182;2023-05-14T00:16:52;16.70;;;11.38;;
18146;SDS011;9199;48.832;9.182;2023-05-14T00:19:18;15.77;;;10.93;;
18146;SDS011;9199;48.832;9.182;2023-05-14T00:21:45;14.38;;;11.27;;
18146;SDS011;9199;48.832;9.182;2023-05-14T00:24:12;14.47;;;10.40;;
18146;SDS011;9199;48.832;9.182;2023-05-14T00:26:38;14.65;;;10.93;;
18146;SDS011;9199;48.832;9.182;2023-05-14T00:29:05;16.33;;;10.95;;
18146;SDS011;9199;48.832;9.182;2023-05-14T00:31:32;15.07;;;10.95;;
18146;SDS011;9199;48.832;9.182;2023-05-14T00:34:00;15.93;;;11.68;;
18146;SDS011;9199;48.832;9.182;2023-05-14T00:36:26;15.53;;;11.47;;
18146;SDS011;9199;48.832;9.182;2023-05-14T00:38:53;15.48;;;11.07;;
18146;SDS011;9199;48.832;9.182;2023-05-14T00:41:21;12.95;;;10.10;;
18146;SDS011;9199;48.832;9.182;2023-05-14T00:43:48;14.43;;;11.18;;
18146;SDS011;9199;48.832;9.182;2023-05-14T00:46:14;14.32;;;11.00;;
18146;SDS011;9199;48.832;9.182;2023-05-14T00:48:41;15.20;;;11.03;;
18146;SDS011;9199;48.832;9.182;2023-05-14T00:51:10;17.77;;;11.70;;
18146;SDS011;9199;48.832;9.182;2023-05-14T00:53:37;18.08;;;11.70;;
18146;SDS011;9199;48.832;9.182;2023-05-14T00:56:04;16.50;;;11.57;;
18146;SDS011;9199;48.832;9.182;2023-05-14T00:58:32;16.08;;;11.70;;
18146;SDS011;9199;48.832;9.182;2023-05-14T01:00:59;14.90;;;11.33;;
18146;SDS011;9199;48.832;9.182;2023-05-14T01:03:25;16.30;;;11.23;;
18146;SDS011;9199;48.832;9.182;2023-05-14T01:05:55;14.10;;;10.63;;
18146;SDS011;9199;48.832;9.182;2023-05-14T01:08:34;14.43;;;10.80;;
18146;SDS011;9199;48.832;9.182;2023-05-14T01:11:12;17.15;;;11.90;;
18146;SDS011;9199;48.832;9.182;2023-05-14T01:13:46;17.07;;;11.73;;
18146;SDS011;9199;48.832;9.182;2023-05-14T01:16:19;20.08;;;12.13;;
18146;SDS011;9199;48.832;9.182;2023-05-14T01:18:47;17.63;;;11.30;;
18146;SDS011;9199;48.832;9.182;2023-05-14T01:21:26;17.00;;;12.18;;
18146;SDS011;9199;48.832;9.182;2023-05-14T01:23:59;15.88;;;11.18;;
18146;SDS011;9199;48.832;9.182;2023-05-14T01:26:26;15.53;;;10.97;;
18146;SDS011;9199;48.832;9.182;2023-05-14T01:28:54;16.52;;;11.50;;
18146;SDS011;9199;48.832;9.182;2023-05-14T01:31:25;17.25;;;11.73;;
18146;SDS011;9199;48.832;9.182;2023-05-14T01:33:53;14.88;;;11.07;;
18146;SDS011;9199;48.832;9.182;2023-05-14T01:36:25;16.65;;;11.93;;
18146;SDS011;9199;48.832;9.182;2023-05-14T01:38:53;15.43;;;11.30;;
18146;SDS011;9199;48.832;9.182;2023-05-14T01:41:21;17.63;;;12.02;;
18146;SDS011;9199;48.832;9.182;2023-05-14T01:43:50;15.93;;;11.80;;
18146;SDS011;9199;48.832;9.182;2023-05-14T01:46:17;16.45;;;11.90;;
18146;SDS011;9199;48.832;9.182;2023-05-14T01:48:44;18.38;;;13.10;;
18146;SDS011;9199;48.832;9.182;2023-05-14T01:51:11;16.47;;;11.90;;
18146;SDS011;9199;48.832;9.182;2023-05-14T01:53:40;17.05;;;12.45;;
18146;SDS011;9199;48.832;9.182;2023-05-14T01:56:06;17.23;;;12.35;;
18146;SDS011;9199;48.832;9.182;2023-05-14T01:58:33;16.38;;;12.15;;
18146;SDS011;9199;48.832;9.182;2023-05-14T02:01:00;19.98;;;13.00;;
18146;SDS011;9199;48.832;9.182;2023-05-14T02:03:26;16.23;;;12.53;;
18146;SDS011;9199;48.832;9.182;2023-05-14T02:05:53;16.20;;;11.80;;
18146;SDS011;9199;48.832;9.182;2023-05-14T02:08:20;16.08;;;11.95;;
18146;SDS011;9199;48.832;9.182;2023-05-14T02:10:48;15.75;;;12.02;;
18146;SDS011;9199;48.832;9.182;2023-05-14T02:13:15;16.42;;;11.85;;
18146;SDS011;9199;48.832;9.182;2023-05-14T02:15:42;15.30;;;11.17;;
18146;SDS011;9199;48.832;9.182;2023-05-14T02:18:08;15.88;;;10.80;;
18146;SDS011;9199;48.832;9.182;2023-05-14T02:20:35;17.10;;;12.13;;
18146;SDS011;9199;48.832;9.182;2023-05-14T02:23:01;18.38;;;11.85;;
18146;SDS011;9199;48.832;9.182;2023-05-14T02:25:28;17.30;;;12.20;;
18146;SDS011;9199;48.832;9.182;2023-05-14T02:27:56;19.57;;;12.97;;
18146;SDS011;9199;48.832;9.182;2023-05-14T02:30:23;16.92;;;12.27;;
18146;SDS011;9199;48.832;9.182;2023-05-14T02:32:49;17.35;;;12.10;;
18146;SDS011;9199;48.832;9.182;2023-05-14T02:35:16;17.67;;;12.93;;
18146;SDS011;9199;48.832;9.182;2023-05-14T02:37:43;17.00;;;12.98;;
18146;SDS011;9199;48.832;9.182;2023-05-14T02:40:10;15.30;;;12.13;;
18146;SDS011;9199;48.832;9.182;2023-05-14T02:42:36;17.17;;;12.77;;
18146;SDS011;9199;48.832;9.182;2023-05-14T02:45:05;17.80;;;12.38;;
18146;SDS011;9199;48.832;9.182;2023-05-14T02:47:32;18.60;;;13.02;;
18146;SDS011;9199;48.832;9.182;2023-05-14T02:49:59;15.90;;;11.75;;
18146;SDS011;9199;48.832;9.182;2023-05-14T02:52:25;17.07;;;12.20;;
18146;SDS011;9199;48.832;9.182;2023-05-14T02:54:52;16.02;;;12.13;;
18146;SDS011;9199;48.832;9.182;2023-05-14T02:57:19;18.58;;;12.32;;
18146;SDS011;9199;48.832;9.182;2023-05-14T02:59:46;14.60;;;11.65;;
18146;SDS011;9199;48.832;9.182;2023-05-14T03:02:14;16.00;;;11.23;;
18146;SDS011;9199;48.832;9.182;2023-05-14T03:04:40;16.23;;;11.83;;
18146;SDS011;9199;48.832;9.182;2023-05-14T03:07:07;15.93;;;11.20;;
18146;SDS011;9199;48.832;9.182;2023-05-14T03:09:34;17.58;;;11.68;;
18146;SDS011;9199;48.832;9.182;2023-05-14T03:12:00;15.57;;;11.32;;
18146;SDS011;9199;48.832;9.182;2023-05-14T03:14:27;16.77;;;11.45;;
18146;SDS011;9199;48.832;9.182;2023-05-14T03:16:53;17.00;;;11.63;;
18146;SDS011;9199;48.832;9.182;2023-05-14T03:19:21;15.70;;;11.60;;
18146;SDS011;9199;48.832;9.182;2023-05-14T03:21:48;15.05;;;11.35;;
18146;SDS011;9199;48.832;9.182;2023-05-14T03:24:15;14.55;;;11.05;;
18146;SDS011;9199;48.832;9.182;2023-05-14T03:26:41;16.23;;;11.40;;
18146;SDS011;9199;48.832;9.182;2023-05-14T03:29:08;15.17;;;11.10;;
18146;SDS011;9199;48.832;9.182;2023-05-14T03:31:35;14.82;;;11.13;;
18146;SDS011;9199;48.832;9.182;2023-05-14T03:34:01;15.48;;;10.73;;
18146;SDS011;9199;48.832;9.182;2023-05-14T03:36:30;14.65;;;10.63;;
18146;SDS011;9199;48.832;9.182;2023-05-14T03:38:58;15.27;;;11.60;;
18146;SDS011;9199;48.832;9.182;2023-05-14T03:41:24;14.17;;;11.27;;
18146;SDS011;9199;48.832;9.182;2023-05-14T03:43:51;15.68;;;11.02;;
18146;SDS011;9199;48.832;9.182;2023-05-14T03:46:17;16.02;;;11.07;;
18146;SDS011;9199;48.832;9.182;2023-05-14T03:48:44;17.33;;;11.07;;
18146;SDS011;9199;48.832;9.182;2023-05-14T03:51:11;14.13;;;10.55;;
18146;SDS011;9199;48.832;9.182;2023-05-14T03:53:39;14.33;;;10.87;;
18146;SDS011;9199;48.832;9.182;2023-05-14T03:56:05;16.85;;;10.68;;
18146;SDS011;9199;48.832;9.182;2023-05-14T03:58:32;15.57;;;10.07;;
18146;SDS011;9199;48.832;9.182;2023-05-14T04:00:59;16.42;;;10.25;;
18146;SDS011;9199;48.832;9.182;2023-05-14T04:03:25;15.20;;;10.52;;
18146;SDS011;9199;48.832;9.182;2023-05-14T04:05:52;14.97;;;10.57;;
18146;SDS011;9199;48.832;9.182;2023-05-14T04:08:19;16.17;;;10.75;;
18146;SDS011;9199;48.832;9.182;2023-05-14T04:10:47;15.38;;;10.50;;
18146;SDS011;9199;48.832;9.182;2023-05-14T04:13:15;13.75;;;10.35;;
18146;SDS011;9199;48.832;9.182;2023-05-14T04:15:42;16.88;;;10.60;;
18146;SDS011;9199;48.832;9.182;2023-05-14T04:18:08;13.47;;;9.63;;
18146;SDS011;9199;48.832;9.182;2023-05-14T04:20:35;16.45;;;10.23;;
18146;SDS011;9199;48.832;9.182;2023-05-14T04:23:02;14.52;;;9.80;;
18146;SDS011;9199;48.832;9.182;2023-05-14T04:25:28;14.30;;;10.05;;
18146;SDS011;9199;48.832;9.182;2023-05-14T04:27:56;13.10;;;9.40;;
18146;SDS011;9199;48.832;9.182;2023-05-14T04:30:23;12.43;;;9.30;;
18146;SDS011;9199;48.832;9.182;2023-05-14T04:32:50;14.15;;;9.32;;
18146;SDS011;9199;48.832;9.182;2023-05-14T04:35:17;13.68;;;9.88;;
18146;SDS011;9199;48.832;9.182;2023-05-14T04:37:44;15.05;;;10.57;;
18146;SDS011;9199;48.832;9.182;2023-05-14T04:40:11;13.68;;;10.35;;
18146;SDS011;9199;48.832;9.182;2023-05-14T04:42:40;12.93;;;9.27;;
18146;SDS011;9199;48.832;9.182;2023-05-14T04:45:09;12.45;;;9.25;;
18146;SDS011;9199;48.832;9.182;2023-05-14T04:47:37;12.95;;;9.57;;
18146;SDS011;9199;48.832;9.182;2023-05-14T04:50:04;12.15;;;8.80;;
18146;SDS011;9199;48.832;9.182;2023-05-14T04:52:33;12.18;;;9.13;;
18146;SDS011;9199;48.832;9.182;2023-05-14T04:54:59;13.70;;;9.90;;
18146;SDS011;9199;48.832;9.182;2023-05-14T04:57:26;12.52;;;9.50;;
18146;SDS011;9199;48.832;9.182;2023-05-14T04:59:53;13.35;;;9.77;;
18146;SDS011;9199;48.832;9.182;2023-05-14T05:02:21;13.65;;;9.30;;
18146;SDS011;9199;48.832;9.182;2023-05-14T05:04:47;13.13;;;8.82;;
18146;SDS011;9199;48.832;9.182;2023-05-14T05:07:14;11.17;;;8.20;;
18146;SDS011;9199;48.832;9.182;2023-05-14T05:09:41;11.15;;;7.30;;
18146;SDS011;9199;48.832;9.182;2023-05-14T05:12:08;8.98;;;6.97;;
18146;SDS011;9199;48.832;9.182;2023-05-14T05:14:35;9.13;;;6.43;;
18146;SDS011;9199;48.832;9.182;2023-05-14T05:17:01;9.93;;;6.50;;
18146;SDS011;9199;48.832;9.182;2023-05-14T05:19:29;10.90;;;5.60;;
18146;SDS011;9199;48.832;9.182;2023-05-14T05:21:56;8.77;;;6.32;;
18146;SDS011;9199;48.832;9.182;2023-05-14T05:24:23;8.95;;;6.50;;
18146;SDS011;9199;48.832;9.182;2023-05-14T05:26:49;8.35;;;6.28;;
18146;SDS011;9199;48.832;9.182;2023-05-14T05:29:17;9.30;;;5.97;;
18146;SDS011;9199;48.832;9.182;2023-05-14T05:31:44;9.83;;;6.43;;
18146;SDS011;9199;48.832;9.182;2023-05-14T05:34:11;9.38;;;6.50;;
18146;SDS011;9199;48.832;9.182;2023-05-14T05:36:39;9.95;;;6.50;;
18146;SDS011;9199;48.832;9.182;2023-05-14T05:39:06;9.32;;;6.32;;
18146;SDS011;9199;48.832;9.182;2023-05-14T05:41:32;9.32;;;6.78;;
18146;SDS011;9199;48.832;9.182;2023-05-14T05:43:59;9.37;;;6.47;;
18146;SDS011;9199;48.832;9.182;2023-05-14T05:46:26;9.40;;;6.70;;
18146;SDS011;9199;48.832;9.182;2023-05-14T05:48:52;9.98;;;6.90;;
18146;SDS011;9199;48.832;9.182;2023-05-14T05:51:19;10.77;;;7.20;;
18146;SDS011;9199;48.832;9.182;2023-05-14T05:53:47;11.77;;;7.25;;
18146;SDS011;9199;48.832;9.182;2023-05-14T05:56:14;10.43;;;6.93;;
18146;SDS011;9199;48.832;9.182;2023-05-14T05:58:40;10.77;;;7.20;;
18146;SDS011;9199;48.832;9.182;2023-05-14T06:01:07;10.85;;;7.40;;
18146;SDS011;9199;48.832;9.182;2023-05-14T06:03:34;11.57;;;6.88;;
18146;SDS011;9199;48.832;9.182;2023-05-14T06:06:00;10.68;;;6.82;;
18146;SDS011;9199;48.832;9.182;2023-05-14T06:08:27;10.47;;;7.40;;
18146;SDS011;9199;48.832;9.182;2023-05-14T06:10:55;9.25;;;7.15;;
18146;SDS011;9199;48.832;9.182;2023-05-14T06:13:21;10.35;;;7.63;;
18146;SDS011;9199;48.832;9.182;2023-05-14T06:15:48;10.18;;;7.05;;
18146;SDS011;9199;48.832;9.182;2023-05-14T06:18:15;10.63;;;7.13;;
18146;SDS011;9199;48.832;9.182;2023-05-14T06:20:41;11.50;;;7.17;;
18146;SDS011;9199;48.832;9.182;2023-05-14T06:23:09;11.52;;;7.10;;
18146;SDS011;9199;48.832;9.182;2023-05-14T06:25:36;11.00;;;7.80;;
18146;SDS011;9199;48.832;9.182;2023-05-14T06:28:04;10.02;;;7.05;;
18146;SDS011;9199;48.832;9.182;2023-05-14T06:30:31;10.48;;;6.55;;
18146;SDS011;9199;48.832;9.182;2023-05-14T06:32:57;9.80;;;6.97;;
18146;SDS011;9199;48.832;9.182;2023-05-14T06:35:24;10.02;;;6.93;;
18146;SDS011;9199;48.832;9.182;2023-05-14T06:37:51;11.85;;;7.65;;
18146;SDS011;9199;48.832;9.182;2023-05-14T06:40:17;12.18;;;7.10;;
18146;SDS011;9199;48.832;9.182;2023-05-14T06:42:44;9.70;;;7.28;;
18146;SDS011;9199;48.832;9.182;2023-05-14T06:45:12;10.63;;;6.87;;
18146;SDS011;9199;48.832;9.182;2023-05-14T06:47:39;10.70;;;7.03;;
18146;SDS011;9199;48.832;9.182;2023-05-14T06:50:06;10.48;;;7.07;;
18146;SDS011;9199;48.832;9.182;2023-05-14T06:52:33;10.23;;;7.00;;
18146;SDS011;9199;48.832;9.182;2023-05-14T06:54:59;9.98;;;6.82;;
18146;SDS011;9199;48.832;9.182;2023-05-14T06:57:29;13.57;;;6.97;;
18146;SDS011;9199;48.832;9.182;2023-05-14T06:59:56;10.30;;;6.70;;
18146;SDS011;9199;48.832;9.182;2023-05-14T07:02:24;9.75;;;7.30;;
18146;SDS011;9199;48.832;9.182;2023-05-14T07:04:50;9.93;;;7.10;;
18146;SDS011;9199;48.832;9.182;2023-05-14T07:07:17;10.50;;;6.75;;
18146;SDS011;9199;48.832;9.182;2023-05-14T07:09:45;10.80;;;7.63;;
18146;SDS011;9199;48.832;9.182;2023-05-14T07:12:12;10.25;;;7.22;;
18146;SDS011;9199;48.832;9.182;2023-05-14T07:14:38;9.60;;;7.05;;
18146;SDS011;9199;48.832;9.182;2023-05-14T07:17:05;9.45;;;7.05;;
18146;SDS011;9199;48.832;9.182;2023-05-14T07:19:33;12.68;;;7.97;;
18146;SDS011;9199;48.832;9.182;2023-05-14T07:22:00;11.07;;;7.70;;
18146;SDS011;9199;48.832;9.182;2023-05-14T07:24:26;11.52;;;7.90;;
18146;SDS011;9199;48.832;9.182;2023-05-14T07:26:53;11.32;;;7.63;;
18146;SDS011;9199;48.832;9.182;2023-05-14T07:29:21;10.52;;;7.43;;
18146;SDS011;9199;48.832;9.182;2023-05-14T07:31:48;11.48;;;7.88;;
18146;SDS011;9199;48.832;9.182;2023-05-14T07:34:16;11.40;;;8.23;;
18146;SDS011;9199;48.832;9.182;2023-05-14T07:36:44;11.02;;;7.88;;
18146;SDS011;9199;48.832;9.182;2023-05-14T07:39:11;10.68;;;7.65;;
18146;SDS011;9199;48.832;9.182;2023-05-14T07:41:38;10.85;;;7.65;;
18146;SDS011;9199;48.832;9.182;2023-05-14T07:44:05;12.48;;;8.30;;
18146;SDS011;9199;48.832;9.182;2023-05-14T07:46:31;13.17;;;6.93;;
18146;SDS011;9199;48.832;9.182;2023-05-14T07:48:58;11.77;;;7.57;;
18146;SDS011;9199;48.832;9.182;2023-05-14T07:51:25;12.88;;;7.55;;
18146;SDS011;9199;48.832;9.182;2023-05-14T07:53:53;13.90;;;7.45;;
18146;SDS011;9199;48.832;9.182;2023-05-14T07:56:20;11.23;;;7.43;;
18146;SDS011;9199;48.832;9.182;2023-05-14T07:58:47;11.93;;;8.20;;
18146;SDS011;9199;48.832;9.182;2023-05-14T08:01:13;9.85;;;7.25;;
18146;SDS011;9199;48.832;9.182;2023-05-14T08:03:40;10.35;;;7.38;;
18146;SDS011;9199;48.832;9.182;2023-05-14T08:06:07;10.75;;;7.50;;
18146;SDS011;9199;48.832;9.182;2023-05-14T08:08:34;10.73;;;7.03;;
18146;SDS011;9199;48.832;9.182;2023-05-14T08:11:02;10.37;;;6.87;;
18146;SDS011;9199;48.832;9.182;2023-05-14T08:13:29;10.25;;;7.22;;
18146;SDS011;9199;48.832;9.182;2023-05-14T08:15:56;10.15;;;6.80;;
18146;SDS011;9199;48.832;9.182;2023-05-14T08:18:22;9.90;;;7.03;;
18146;SDS011;9199;48.832;9.182;2023-05-14T08:20:49;8.80;;;6.80;;
18146;SDS011;9199;48.832;9.182;2023-05-14T08:23:16;9.77;;;7.07;;
18146;SDS011;9199;48.832;9.182;2023-05-14T08:25:42;10.13;;;7.20;;
18146;SDS011;9199;48.832;9.182;2023-05-14T08:28:10;9.77;;;7.20;;
18146;SDS011;9199;48.832;9.182;2023-05-14T08:30:37;10.15;;;7.03;;
18146;SDS011;9199;48.832;9.182;2023-05-14T08:33:04;9.65;;;7.57;;
18146;SDS011;9199;48.832;9.182;2023-05-14T08:35:31;9.50;;;7.03;;
18146;SDS011;9199;48.832;9.182;2023-05-14T08:37:57;10.48;;;7.10;;
18146;SDS011;9199;48.832;9.182;2023-05-14T08:40:24;10.00;;;7.07;;
18146;SDS011;9199;48.832;9.182;2023-05-14T08:42:51;10.43;;;6.95;;
18146;SDS011;9199;48.832;9.182;2023-05-14T08:45:20;9.02;;;7.07;;
18146;SDS011;9199;48.832;9.182;2023-05-14T08:47:52;12.73;;;7.47;;
18146;SDS011;9199;48.832;9.182;2023-05-14T08:50:21;10.18;;;7.90;;
18146;SDS011;9199;48.832;9.182;2023-05-14T08:52:47;10.38;;;7.03;;
18146;SDS011;9199;48.832;9.182;2023-05-14T08:55:14;10.30;;;7.75;;
18146;SDS011;9199;48.832;9.182;2023-05-14T08:57:41;10.75;;;7.80;;
18146;SDS011;9199;48.832;9.182;2023-05-14T09:00:08;9.57;;;7.20;;
18146;SDS011;9199;48.832;9.182;2023-05-14T09:02:38;10.15;;;7.47;;
18146;SDS011;9199;48.832;9.182;2023-05-14T09:05:06;10.15;;;7.70;;
18146;SDS011;9199;48.832;9.182;2023-05-14T09:07:34;9.65;;;6.88;;
18146;SDS011;9199;48.832;9.182;2023-05-14T09:10:01;10.32;;;7.57;;
18146;SDS011;9199;48.832;9.182;2023-05-14T09:12:28;11.20;;;7.50;;
18146;SDS011;9199;48.832;9.182;2023-05-14T09:14:55;10.20;;;7.60;;
18146;SDS011;9199;48.832;9.182;2023-05-14T09:17:21;10.30;;;7.82;;
18146;SDS011;9199;48.832;9.182;2023-05-14T09:19:52;10.88;;;7.93;;
18146;SDS011;9199;48.832;9.182;2023-05-14T09:22:19;10.15;;;7.65;;
18146;SDS011;9199;48.832;9.182;2023-05-14T09:24:46;9.70;;;7.47;;
18146;SDS011;9199;48.832;9.182;2023-05-14T09:27:28;11.25;;;7.40;;
18146;SDS011;9199;48.832;9.182;2023-05-14T09:30:00;11.65;;;7.53;;
18146;SDS011;9199;48.832;9.182;2023-05-14T09:32:33;12.02;;;7.35;;
18146;SDS011;9199;48.832;9.182;2023-05-14T09:35:09;11.10;;;7.68;;
18146;SDS011;9199;48.832;9.182;2023-05-14T09:37:38;10.90;;;7.73;;
18146;SDS011;9199;48.832;9.182;2023-05-14T09:40:07;9.20;;;7.07;;
18146;SDS011;9199;48.832;9.182;2023-05-14T09:42:34;7.00;;;5.00;;
18146;SDS011;9199;48.832;9.182;2023-05-14T09:45:01;8.43;;;6.50;;
18146;SDS011;9199;48.832;9.182;2023-05-14T09:47:28;8.77;;;6.40;;
18146;SDS011;9199;48.832;9.182;2023-05-14T09:49:55;8.00;;;6.03;;
18146;SDS011;9199;48.832;9.182;2023-05-14T09:52:23;11.68;;;5.80;;
18146;SDS011;9199;48.832;9.182;2023-05-14T09:54:50;7.70;;;5.88;;
18146;SDS011;9199;48.832;9.182;2023-05-14T09:57:17;8.40;;;6.38;;
18146;SDS011;9199;48.832;9.182;2023-05-14T09:59:44;9.35;;;6.35;;
18146;SDS011;9199;48.832;9.182;2023-05-14T10:02:13;8.47;;;6.30;;
18146;SDS011;9199;48.832;9.182;2023-05-14T10:04:46;8.40;;;6.65;;
18146;SDS011;9199;48.832;9.182;2023-05-14T10:07:15;10.18;;;6.60;;
18146;SDS011;9199;48.832;9.182;2023-05-14T10:09:48;10.60;;;6.60;;
18146;SDS011;9199;48.832;9.182;2023-05-14T10:12:21;8.20;;;5.30;;
18146;SDS011;9199;48.832;9.182;2023-05-14T10:14:49;7.07;;;5.13;;
18146;SDS011;9199;48.832;9.182;2023-05-14T10:17:18;7.70;;;5.38;;
18146;SDS011;9199;48.832;9.182;2023-05-14T10:19:49;8.15;;;5.85;;
18146;SDS011;9199;48.832;9.182;2023-05-14T10:22:21;7.97;;;5.20;;
18146;SDS011;9199;48.832;9.182;2023-05-14T10:24:50;8.95;;;5.47;;
18146;SDS011;9199;48.832;9.182;2023-05-14T10:27:17;7.70;;;5.57;;
18146;SDS011;9199;48.832;9.182;2023-05-14T10:29:47;8.25;;;6.18;;
18146;SDS011;9199;48.832;9.182;2023-05-14T10:32:17;8.73;;;5.90;;
18146;SDS011;9199;48.832;9.182;2023-05-14T10:34:45;8.68;;;5.80;;
18146;SDS011;9199;48.832;9.182;2023-05-14T10:37:14;9.40;;;5.60;;
18146;SDS011;9199;48.832;9.182;2023-05-14T10:39:42;9.43;;;5.90;;
18146;SDS011;9199;48.832;9.182;2023-05-14T10:42:12;8.98;;;6.07;;
18146;SDS011;9199;48.832;9.182;2023-05-14T10:44:44;9.55;;;6.65;;
18146;SDS011;9199;48.832;9.182;2023-05-14T10:47:13;8.65;;;6.45;;
18146;SDS011;9199;48.832;9.182;2023-05-14T10:49:41;8.20;;;6.35;;
18146;SDS011;9199;48.832;9.182;2023-05-14T10:52:09;7.73;;;6.10;;
18146;SDS011;9199;48.832;9.182;2023-05-14T10:54:36;8.38;;;6.20;;
18146;SDS011;9199;48.832;9.182;2023-05-14T10:57:04;8.55;;;6.35;;
18146;SDS011;9199;48.832;9.182;2023-05-14T10:59:37;9.27;;;6.18;;
18146;SDS011;9199;48.832;9.182;2023-05-14T11:02:15;8.65;;;6.18;;
18146;SDS011;9199;48.832;9.182;2023-05-14T11:04:49;9.27;;;5.73;;
18146;SDS011;9199;48.832;9.182;2023-05-14T11:07:23;8.93;;;5.10;;
18146;SDS011;9199;48.832;9.182;2023-05-14T11:09:54;9.52;;;5.53;;
18146;SDS011;9199;48.832;9.182;2023-05-14T11:12:24;7.68;;;5.85;;
18146;SDS011;9199;48.832;9.182;2023-05-14T11:14:53;7.45;;;5.57;;
18146;SDS011;9199;48.832;9.182;2023-05-14T11:17:22;7.43;;;5.67;;
18146;SDS011;9199;48.832;9.182;2023-05-14T11:19:50;8.43;;;5.70;;
18146;SDS011;9199;48.832;9.182;2023-05-14T11:22:16;6.75;;;5.10;;
18146;SDS011;9199;48.832;9.182;2023-05-14T11:24:43;7.53;;;5.10;;
18146;SDS011;9199;48.832;9.182;2023-05-14T11:27:10;8.63;;;5.20;;
18146;SDS011;9199;48.832;9.182;2023-05-14T11:29:37;10.80;;;5.30;;
18146;SDS011;9199;48.832;9.182;2023-05-14T11:32:05;7.22;;;4.70;;
18146;SDS011;9199;48.832;9.182;2023-05-14T11:34:32;8.10;;;5.55;;
18146;SDS011;9199;48.832;9.182;2023-05-14T11:37:01;7.18;;;5.28;;
18146;SDS011;9199;48.832;9.182;2023-05-14T11:39:29;6.45;;;4.45;;
18146;SDS011;9199;48.832;9.182;2023-05-14T11:41:57;6.50;;;4.30;;
18146;SDS011;9199;48.832;9.182;2023-05-14T11:44:23;5.95;;;4.45;;
18146;SDS011;9199;48.832;9.182;2023-05-14T11:46:54;6.32;;;4.32;;
18146;SDS011;9199;48.832;9.182;2023-05-14T11:49:22;6.43;;;4.10;;
18146;SDS011;9199;48.832;9.182;2023-05-14T11:51:49;6.93;;;4.63;;
18146;SDS011;9199;48.832;9.182;2023-05-14T11:54:16;7.37;;;4.90;;
18146;SDS011;9199;48.832;9.182;2023-05-14T11:56:47;6.22;;;4.18;;
18146;SDS011;9199;48.832;9.182;2023-05-14T11:59:16;5.82;;;3.95;;
18146;SDS011;9199;48.832;9.182;2023-05-14T12:01:43;6.00;;;4.20;;
18146;SDS011;9199;48.832;9.182;2023-05-14T12:04:10;6.38;;;4.35;;
18146;SDS011;9199;48.832;9.182;2023-05-14T12:06:39;6.20;;;4.40;;
18146;SDS011;9199;48.832;9.182;2023-05-14T12:09:06;8.23;;;5.10;;
18146;SDS011;9199;48.832;9.182;2023-05-14T12:11:34;6.53;;;4.30;;
18146;SDS011;9199;48.832;9.182;2023-05-14T12:14:08;6.80;;;4.35;;
18146;SDS011;9199;48.832;9.182;2023-05-14T12:16:38;10.07;;;5.22;;
18146;SDS011;9199;48.832;9.182;2023-05-14T12:19:07;7.70;;;4.70;;
18146;SDS011;9199;48.832;9.182;2023-05-14T12:21:35;8.95;;;5.03;;
18146;SDS011;9199;48.832;9.182;2023-05-14T12:24:04;8.45;;;5.38;;
18146;SDS011;9199;48.832;9.182;2023-05-14T12:26:34;6.80;;;5.03;;
18146;SDS011;9199;48.832;9.182;2023-05-14T12:29:03;8.57;;;4.80;;
18146;SDS011;9199;48.832;9.182;2023-05-14T12:31:31;6.43;;;4.53;;
18146;SDS011;9199;48.832;9.182;2023-05-14T12:33:58;7.53;;;4.70;;
18146;SDS011;9199;48.832;9.182;2023-05-14T12:36:24;7.35;;;4.40;;
18146;SDS011;9199;48.832;9.182;2023-05-14T12:38:56;5.30;;;3.47;;
18146;SDS011;9199;48.832;9.182;2023-05-14T12:41:25;7.63;;;3.92;;
18146;SDS011;9199;48.832;9.182;2023-05-14T12:43:52;6.57;;;4.00;;
18146;SDS011;9199;48.832;9.182;2023-05-14T12:46:19;6.03;;;4.18;;
18146;SDS011;9199;48.832;9.182;2023-05-14T12:48:46;5.45;;;4.00;;
18146;SDS011;9199;48.832;9.182;2023-05-14T12:51:12;5.60;;;3.80;;
18146;SDS011;9199;48.832;9.182;2023-05-14T12:53:39;6.10;;;4.05;;
18146;SDS011;9199;48.832;9.182;2023-05-14T12:56:06;5.40;;;3.60;;
18146;SDS011;9199;48.832;9.182;2023-05-14T12:58:34;7.00;;;3.72;;
18146;SDS011;9199;48.832;9.182;2023-05-14T13:01:01;5.22;;;3.60;;
18146;SDS011;9199;48.832;9.182;2023-05-14T13:03:28;5.78;;;3.42;;
18146;SDS011;9199;48.832;9.182;2023-05-14T13:05:55;5.57;;;3.60;;
18146;SDS011;9199;48.832;9.182;2023-05-14T13:08:22;6.57;;;4.17;;
18146;SDS011;9199;48.832;9.182;2023-05-14T13:10:50;5.22;;;3.50;;
18146;SDS011;9199;48.832;9.182;2023-05-14T13:13:17;6.22;;;3.97;;
18146;SDS011;9199;48.832;9.182;2023-05-14T13:15:45;5.25;;;3.47;;
18146;SDS011;9199;48.832;9.182;2023-05-14T13:18:11;5.53;;;3.83;;
18146;SDS011;9199;48.832;9.182;2023-05-14T13:20:38;5.20;;;4.03;;
18146;SDS011;9199;48.832;9.182;2023-05-14T13:23:05;4.90;;;3.53;;
18146;SDS011;9199;48.832;9.182;2023-05-14T13:25:32;5.47;;;3.60;;
18146;SDS011;9199;48.832;9.182;2023-05-14T13:27:58;5.88;;;3.53;;
18146;SDS011;9199;48.832;9.182;2023-05-14T13:30:25;5.53;;;3.83;;
18146;SDS011;9199;48.832;9.182;2023-05-14T13:32:53;7.70;;;3.93;;
18146;SDS011;9199;48.832;9.182;2023-05-14T13:35:20;5.57;;;3.70;;
18146;SDS011;9199;48.832;9.182;2023-05-14T13:37:46;5.60;;;3.70;;
18146;SDS011;9199;48.832;9.182;2023-05-14T13:40:13;5.40;;;3.42;;
18146;SDS011;9199;48.832;9.182;2023-05-14T13:42:40;6.32;;;4.15;;
18146;SDS011;9199;48.832;9.182;2023-05-14T13:45:07;5.57;;;4.00;;
18146;SDS011;9199;48.832;9.182;2023-05-14T13:47:35;5.45;;;3.70;;
18146;SDS011;9199;48.832;9.182;2023-05-14T13:50:04;5.95;;;3.80;;
18146;SDS011;9199;48.832;9.182;2023-05-14T13:52:31;5.25;;;3.58;;
18146;SDS011;9199;48.832;9.182;2023-05-14T13:54:58;5.15;;;3.25;;
18146;SDS011;9199;48.832;9.182;2023-05-14T13:57:24;5.60;;;3.10;;
18146;SDS011;9199;48.832;9.182;2023-05-14T13:59:51;4.63;;;3.00;;
18146;SDS011;9199;48.832;9.182;2023-05-14T14:02:18;4.35;;;3.00;;
18146;SDS011;9199;48.832;9.182;2023-05-14T14:04:44;5.10;;;2.92;;
18146;SDS011;9199;48.832;9.182;2023-05-14T14:07:12;4.72;;;2.53;;
18146;SDS011;9199;48.832;9.182;2023-05-14T14:09:39;4.60;;;2.70;;
18146;SDS011;9199;48.832;9.182;2023-05-14T14:12:06;4.75;;;2.65;;
18146;SDS011;9199;48.832;9.182;2023-05-14T14:14:33;5.03;;;2.80;;
18146;SDS011;9199;48.832;9.182;2023-05-14T14:17:00;3.90;;;2.67;;
18146;SDS011;9199;48.832;9.182;2023-05-14T14:19:26;5.03;;;2.90;;
18146;SDS011;9199;48.832;9.182;2023-05-14T14:21:54;5.00;;;3.10;;
18146;SDS011;9199;48.832;9.182;2023-05-14T14:24:21;5.00;;;2.92;;
18146;SDS011;9199;48.832;9.182;2023-05-14T14:26:48;4.38;;;3.03;;
18146;SDS011;9199;48.832;9.182;2023-05-14T14:29:15;4.22;;;2.95;;
18146;SDS011;9199;48.832;9.182;2023-05-14T14:31:42;6.68;;;3.30;;
18146;SDS011;9199;48.832;9.182;2023-05-14T14:34:09;4.33;;;3.07;;
18146;SDS011;9199;48.832;9.182;2023-05-14T14:36:36;4.97;;;2.92;;
18146;SDS011;9199;48.832;9.182;2023-05-14T14:39:03;4.05;;;2.80;;
18146;SDS011;9199;48.832;9.182;2023-05-14T14:41:31;5.57;;;2.58;;
18146;SDS011;9199;48.832;9.182;2023-05-14T14:43:57;5.53;;;2.75;;
18146;SDS011;9199;48.832;9.182;2023-05-14T14:46:26;4.80;;;2.60;;
18146;SDS011;9199;48.832;9.182;2023-05-14T14:48:53;3.42;;;2.00;;
18146;SDS011;9199;48.832;9.182;2023-05-14T14:51:20;3.40;;;2.08;;
18146;SDS011;9199;48.832;9.182;2023-05-14T14:53:46;8.23;;;2.53;;